Главная страница
METAR-TAF:

METAR-TAF

Аэропорты :

Шармеллек

Хевиз, Венгрия

широта: 46-41-11N, долгота: 017-09-33E, высота над уровнем моря: 124 м

Текущие метеонаблюдения

Эта сводка был подготовлена 2 часа и 12 минут назад, в 19:45 UTC
Ветер 3 Узел от северо-западный
Температура 20°C
Влажность 78%
Давление 1014 hPa
Видимость: 6000 м

METAR: LHSM 171945Z 32003KT 6000 NSC 20/16 Q1014

Время: 23:57 (21:57 UTC)

Прогноз

Эта сводка был подготовлена 10 часа и 42 минут назад, в 11:15 UTC
Прогноз действительный с 17-го 12 UTC до 17-го 21 UTC
Ветер 10 Узел от северно-северо-западный
Видимость 10 км и более
небольшая облачность на высоте 3500 фута
Вероятность 30% :
временами
С 17-го 12 UTC до 17-го 18 UTC
Ветер 15 Узел переменных направлений с порывами до 28 Узел
Видимость: 5000 м
Рассеянная облачность на высоте 3000 фута, Кучево-дождевые.
гроза, дождь

TAF: LHSM 171115Z 1712/1721 33010KT 9999 FEW035 PROB30 TEMPO 1712/1718 VRB15G28KT 5000 TSRA BKN030CB

Метеонаблюдения и прогнозы для более 4000 аэропортов (сводки METAR и TAF).

Имеющиеся станции представлены на карте желтыми и красными точками.

Чтобы увидеть название станции, наведите на нее мышь.

Затем щелкните, чтобы увидеть метеонаблюдения и метеопрогнозы.

Управление картой: чтобы увеличить масштаб, щелкните зеленые кнопки с черным крестиком; чтобы уменьшить масштаб, щелкните зеленую кнопку с тире; для просмотра соседних карт щелкайте зеленые стрелки.


METAR-TAF: